createdAt,value
2019-05-05T09:47:30.968Z,8.60
2019-05-05T09:49:58.581Z,8.50
2019-05-05T09:52:26.396Z,8.50
2019-05-05T09:54:54.535Z,8.70
2019-05-05T09:57:23.716Z,8.60
2019-05-05T09:59:54.256Z,8.50
2019-05-05T10:02:24.104Z,8.50
2019-05-05T10:04:55.228Z,8.60
2019-05-05T10:07:24.274Z,8.80
2019-05-05T10:09:54.960Z,8.70
2019-05-05T10:12:22.722Z,9.00
2019-05-05T10:14:57.281Z,8.90
2019-05-05T10:17:25.434Z,9.00
2019-05-05T10:19:54.646Z,9.10
2019-05-05T10:22:23.882Z,9.00
2019-05-05T10:24:57.634Z,9.10
2019-05-05T10:27:25.293Z,9.30
2019-05-05T10:29:54.698Z,9.20
2019-05-05T10:32:24.344Z,9.10
2019-05-05T10:35:04.497Z,9.10
2019-05-05T10:37:31.852Z,9.30
2019-05-05T10:39:59.479Z,9.20
2019-05-05T10:42:46.543Z,9.20
2019-05-05T10:45:14.255Z,9.30
2019-05-05T10:47:43.959Z,8.90
2019-05-05T10:50:11.404Z,9.00
2019-05-05T10:52:38.944Z,9.00
2019-05-05T10:55:06.914Z,8.80
2019-05-05T10:57:34.524Z,8.80
2019-05-05T11:00:10.161Z,8.70
2019-05-05T11:02:31.667Z,8.40
2019-05-05T11:04:59.245Z,8.30
2019-05-05T11:07:26.832Z,8.20
2019-05-05T11:09:54.497Z,8.20
2019-05-05T11:12:44.353Z,8.20
2019-05-05T11:15:37.894Z,10.30
2019-05-05T11:18:26.755Z,8.50
2019-05-05T11:20:58.620Z,8.50
2019-05-05T11:23:38.703Z,8.40
2019-05-05T11:26:10.867Z,8.40
2019-05-05T11:28:34.065Z,8.40
2019-05-05T11:31:01.708Z,8.30
2019-05-05T11:33:48.772Z,8.50
2019-05-05T11:36:29.453Z,8.60
2019-05-05T11:39:00.061Z,8.60
2019-05-05T11:41:28.104Z,8.60
2019-05-05T11:43:55.861Z,8.60
2019-05-05T11:46:24.723Z,8.50
2019-05-05T11:48:54.388Z,8.50
2019-05-05T11:51:24.797Z,8.40
2019-05-05T11:53:53.872Z,8.20
2019-05-05T11:56:21.592Z,8.20
2019-05-05T11:58:49.264Z,8.20
2019-05-05T12:01:16.991Z,8.30
2019-05-05T12:03:44.604Z,8.30
2019-05-05T12:06:14.453Z,8.40
2019-05-05T12:08:45.492Z,8.50
2019-05-05T12:11:12.321Z,8.40
2019-05-05T12:13:39.908Z,7.40
2019-05-05T12:16:08.858Z,8.20
2019-05-05T12:18:36.393Z,8.20
2019-05-05T12:21:05.074Z,8.10
2019-05-05T12:23:33.927Z,8.10
2019-05-05T12:26:30.066Z,8.10
2019-05-05T12:29:18.205Z,8.00
2019-05-05T12:31:50.793Z,7.90
2019-05-05T12:34:18.354Z,7.90
2019-05-05T12:36:47.046Z,8.00
2019-05-05T12:39:14.585Z,8.00
2019-05-05T12:41:42.814Z,8.10
2019-05-05T12:44:14.285Z,8.10
2019-05-05T12:47:01.188Z,7.90
2019-05-05T12:49:28.779Z,7.80
2019-05-05T12:51:56.289Z,7.80
2019-05-05T12:54:24.657Z,7.80
2019-05-05T12:56:53.910Z,7.80
2019-05-05T12:59:24.986Z,7.90
2019-05-05T13:01:54.547Z,8.00
2019-05-05T13:04:21.972Z,7.90
2019-05-05T13:06:50.372Z,8.10
2019-05-05T13:09:19.220Z,8.10
2019-05-05T13:11:49.017Z,8.00
2019-05-05T13:14:17.295Z,7.90
2019-05-05T13:16:52.804Z,8.00
2019-05-05T13:19:24.241Z,8.00
2019-05-05T13:22:09.909Z,8.00
2019-05-05T13:24:57.933Z,7.90
2019-05-05T13:27:29.060Z,7.90
2019-05-05T13:29:57.535Z,7.70
2019-05-05T13:32:26.201Z,8.00
2019-05-05T13:34:54.754Z,8.10
2019-05-05T13:37:24.320Z,7.90
2019-05-05T13:39:53.917Z,7.90
2019-05-05T13:42:21.512Z,7.90
2019-05-05T13:45:03.951Z,7.80
2019-05-05T13:47:31.527Z,7.90
2019-05-05T13:50:07.022Z,7.90
2019-05-05T13:52:34.619Z,8.00
2019-05-05T13:55:02.242Z,8.00
2019-05-05T13:57:29.822Z,7.90
2019-05-05T13:59:57.432Z,7.90
2019-05-05T14:02:25.043Z,7.90
2019-05-05T14:04:54.184Z,7.80
2019-05-05T14:07:23.779Z,7.70
2019-05-05T14:09:51.316Z,7.50
2019-05-05T14:12:20.091Z,7.70
2019-05-05T14:14:47.967Z,7.60
2019-05-05T14:17:15.876Z,7.80
2019-05-05T14:19:44.563Z,7.70
2019-05-05T14:22:12.216Z,7.70
2019-05-05T14:24:46.422Z,7.70
2019-05-05T14:27:14.462Z,7.70
2019-05-05T14:29:56.530Z,7.50
2019-05-05T14:32:27.437Z,7.50
2019-05-05T14:35:04.642Z,7.50
2019-05-05T14:37:38.544Z,9.40
2019-05-05T14:40:06.338Z,7.50
2019-05-05T14:42:34.298Z,7.40
2019-05-05T14:45:01.965Z,7.30
2019-05-05T14:47:29.582Z,7.20
2019-05-05T14:49:57.321Z,7.20
2019-05-05T14:52:25.005Z,7.20
2019-05-05T14:54:54.447Z,7.20
2019-05-05T14:57:27.721Z,7.40
2019-05-05T14:59:56.248Z,7.40
2019-05-05T15:02:24.530Z,7.20
2019-05-05T15:04:54.740Z,7.30
2019-05-05T15:07:29.251Z,7.30
2019-05-05T15:10:14.441Z,7.30
2019-05-05T15:12:46.205Z,7.30
2019-05-05T15:15:14.489Z,7.40
2019-05-05T15:17:43.429Z,7.40
2019-05-05T15:20:11.329Z,7.20
2019-05-05T15:22:38.917Z,6.90
2019-05-05T15:25:06.615Z,7.00
2019-05-05T15:27:34.868Z,7.00
2019-05-05T15:30:04.403Z,7.10
2019-05-05T15:32:33.924Z,7.10
2019-05-05T15:35:03.863Z,7.20
2019-05-05T15:37:31.205Z,7.20
2019-05-05T15:39:58.877Z,7.30
2019-05-05T15:42:26.605Z,7.30
2019-05-05T15:44:54.475Z,7.40
2019-05-05T15:47:23.643Z,7.50
2019-05-05T15:49:53.318Z,7.40
2019-05-05T15:52:24.365Z,7.50
2019-05-05T15:54:54.862Z,6.30
2019-05-05T15:57:26.077Z,7.40
2019-05-05T15:59:54.375Z,7.30
2019-05-05T16:02:24.003Z,7.40
2019-05-05T16:04:53.941Z,7.20
2019-05-05T16:09:49.487Z,7.20
2019-05-05T16:12:17.207Z,7.10
2019-05-05T16:14:53.800Z,7.10
2019-05-05T16:19:59.678Z,7.00
2019-05-05T16:22:56.951Z,6.90
2019-05-05T16:25:24.749Z,6.90
2019-05-05T16:27:52.699Z,6.80
2019-05-05T16:30:20.679Z,6.80
2019-05-05T16:32:48.492Z,6.80
2019-05-05T16:35:16.319Z,6.70
2019-05-05T16:37:44.328Z,6.70
2019-05-05T16:40:14.649Z,6.60
2019-05-05T16:42:43.727Z,6.90
2019-05-05T16:45:14.075Z,6.50
2019-05-05T16:47:44.308Z,6.60
2019-05-05T16:50:13.646Z,6.60
2019-05-05T16:52:47.206Z,6.60
2019-05-05T16:55:34.444Z,6.60
2019-05-05T16:58:04.056Z,6.70
2019-05-05T17:00:34.491Z,6.60
2019-05-05T17:03:04.078Z,6.60
2019-05-05T17:05:31.701Z,6.60
2019-05-05T17:07:59.859Z,6.50
2019-05-05T17:10:28.128Z,6.40
2019-05-05T17:12:57.238Z,6.50
2019-05-05T17:15:44.264Z,6.50
2019-05-05T17:18:46.502Z,6.50
2019-05-05T17:21:20.307Z,6.50
2019-05-05T17:23:50.352Z,6.50
2019-05-05T17:26:18.541Z,6.40
2019-05-05T17:28:46.385Z,6.40
2019-05-05T17:31:14.186Z,6.30
2019-05-05T17:37:34.811Z,6.40
2019-05-05T17:40:29.756Z,6.40
2019-05-05T17:43:24.989Z,6.40
2019-05-05T17:45:58.061Z,4.20
2019-05-05T17:48:33.603Z,6.40
2019-05-05T17:51:08.249Z,6.20
2019-05-05T17:53:48.801Z,6.20
2019-05-05T17:56:16.377Z,6.40
2019-05-05T17:58:44.491Z,6.40
2019-05-05T18:01:12.061Z,6.30
2019-05-05T18:03:39.654Z,6.40
2019-05-05T18:06:20.621Z,5.20
2019-05-05T18:08:54.387Z,6.30
2019-05-05T18:11:37.767Z,6.30
2019-05-05T18:14:10.590Z,6.40
2019-05-05T18:16:38.338Z,6.30
2019-05-05T18:19:05.823Z,6.40
2019-05-05T18:21:34.769Z,6.40
2019-05-05T18:24:02.578Z,6.40
2019-05-05T18:26:30.583Z,6.40
2019-05-05T18:28:58.157Z,6.60
2019-05-05T18:31:25.854Z,6.40
2019-05-05T18:33:54.323Z,6.30
2019-05-05T18:36:22.190Z,6.30
2019-05-05T18:38:51.152Z,6.40
2019-05-05T18:41:25.921Z,6.30
2019-05-05T18:44:03.815Z,6.30
2019-05-05T18:46:31.547Z,6.40
2019-05-05T18:48:59.081Z,6.40
2019-05-05T18:51:26.935Z,6.40
2019-05-05T18:53:55.159Z,6.30
2019-05-05T18:56:23.687Z,6.40
2019-05-05T18:58:51.275Z,6.30
2019-05-05T19:01:44.595Z,6.40
2019-05-05T19:04:26.875Z,6.50
2019-05-05T19:07:14.442Z,6.40
2019-05-05T19:09:51.854Z,6.50
2019-05-05T19:12:11.922Z,6.60
2019-05-05T19:14:39.548Z,6.60
2019-05-05T19:17:07.167Z,6.70
2019-05-05T19:19:35.879Z,6.80
2019-05-05T19:22:08.076Z,6.90
2019-05-05T19:24:36.027Z,6.80
2019-05-05T19:27:03.877Z,6.80
2019-05-05T19:29:32.219Z,6.80
2019-05-05T19:32:00.044Z,6.70
2019-05-05T19:34:27.590Z,6.70
2019-05-05T19:36:55.437Z,6.80
2019-05-05T19:39:24.283Z,6.80
2019-05-05T19:41:54.404Z,7.00
2019-05-05T19:44:21.361Z,6.90
2019-05-05T19:47:05.643Z,7.00
2019-05-05T19:49:33.789Z,7.00
2019-05-05T19:52:05.695Z,6.90
2019-05-05T19:54:31.105Z,6.90
2019-05-05T19:57:00.505Z,6.90
2019-05-05T19:59:28.588Z,6.80
2019-05-05T20:01:56.229Z,7.10
2019-05-05T20:04:24.173Z,6.90
2019-05-05T20:06:52.214Z,7.10
2019-05-05T20:09:25.107Z,6.90
2019-05-05T20:11:56.122Z,7.10
2019-05-05T20:14:24.813Z,6.90
2019-05-05T20:17:23.565Z,6.80
2019-05-05T20:19:51.452Z,6.40
2019-05-05T20:22:19.347Z,7.00
2019-05-05T20:25:13.899Z,7.00
2019-05-05T20:27:41.486Z,7.10
2019-05-05T20:30:09.347Z,7.10
2019-05-05T20:32:43.811Z,7.10
2019-05-05T20:35:44.761Z,7.00
2019-05-05T20:41:27.685Z,7.20
2019-05-05T20:43:55.720Z,7.10
2019-05-05T20:46:23.845Z,7.40
2019-05-05T20:48:51.710Z,7.00
2019-05-05T20:51:28.895Z,7.20
2019-05-05T20:53:56.918Z,7.20
2019-05-05T20:56:24.873Z,7.20
2019-05-05T20:58:54.731Z,7.20
2019-05-05T21:01:24.503Z,7.20
2019-05-05T21:03:53.554Z,7.40
2019-05-05T21:06:21.383Z,7.30
2019-05-05T21:09:01.209Z,7.50
2019-05-05T21:11:28.912Z,7.30
2019-05-05T21:14:31.165Z,7.00
2019-05-05T21:16:48.292Z,7.20
2019-05-05T21:19:16.064Z,7.00
2019-05-05T21:21:46.792Z,7.00
2019-05-05T21:24:14.948Z,7.10
2019-05-05T21:30:48.380Z,7.20
2019-05-05T21:33:16.677Z,7.20
2019-05-05T21:39:21.700Z,7.20
2019-05-05T21:41:56.798Z,7.20
2019-05-05T21:44:34.241Z,7.20
2019-05-05T21:47:02.157Z,7.20
2019-05-05T21:49:30.206Z,4.20
2019-05-05T21:52:14.389Z,8.00
2019-05-05T21:55:00.456Z,7.20
2019-05-05T21:57:38.287Z,7.20
2019-05-05T22:00:09.909Z,8.50
2019-05-05T22:02:37.613Z,7.50
2019-05-05T22:05:05.748Z,7.10
2019-05-05T22:07:35.499Z,7.20
2019-05-05T22:10:04.462Z,4.80
2019-05-05T22:12:33.373Z,4.20
2019-05-05T22:15:04.138Z,7.30
2019-05-05T22:17:33.611Z,6.90
2019-05-05T22:20:08.262Z,6.90
2019-05-05T22:22:37.932Z,6.80
